Seabourn Quest — C6YZ5 — position and weather

sailwx.info

Track history (hours):
 
Tides and Currents Weather Stations Pressure Air Temp Water Temp Dewpoint Dewpoint Depression Visibility Wind Speed Wind Dir Waves Ship Positions

Seabourn Quest

Last reported at 2015-May-24 07:25 UTC. Time now 2015-May-24 08:53 UTC.
Position N 50°17' E 000°03'.

Length 197 m; draft 6.7 m.

Type: Passenger vessel. MMSI: 311038900.

Date/timePositionNaut miles runAvg speedWind from/ knotsBaromVisibWave heightAir tempDewpointWater temp
2015-May-24 07:25N 50°17' E 000°03'3 3.2
2015-May-24 06:32N 50°15' E 000°01'4 4.1
2015-May-24 05:33N 50°11' W 000°01'5 4.2
2015-May-24 04:20N 50°06' W 000°02'3 4.4
2015-May-24 03:32N 50°03' W 000°03'19 4.8
2015-May-23 23:33N 49°44' W 000°09'5 4.7
2015-May-23 22:33N 49°39' W 000°10'6 5.7
2015-May-23 21:33N 49°33' W 000°12'4 4.4
2015-May-23 20:33N 49°30' W 000°08'4 4.5
2015-May-23 19:33N 49°28' W 000°01'1111.1
2015-May-23 18:33N 49°26' E 000°15'1111.5
2015-May-23 17:33N 49°28' E 000°33'9 8.4
2015-May-23 16:27N 49°31' E 000°46'7 0.2
2015-May-22 03:23N 49°28' E 000°56'5 4.8
2015-May-22 02:17N 49°26' E 000°48'6 5.2
2015-May-22 01:06N 49°29' E 000°40'5 9.0
2015-May-22 00:33N 49°28' E 000°33'1111.0
2015-May-21 23:33N 49°26' E 000°16'1212.2
2015-May-21 22:33N 49°29' W 000°02'1212.5
2015-May-21 21:33N 49°33' W 000°20'1313.1
2015-May-21 20:33N 49°38' W 000°39'39 9.3
2015-May-21 16:21N 49°40' W 001°39'  
2015-May-16 20:25N 39°05' W 009°44'1416.5
2015-May-16 19:33N 38°51' W 009°43'1212.2
2015-May-16 18:33N 38°39' W 009°41'1312.6
2015-May-16 17:33N 38°36' W 009°26'1413.4
2015-May-16 16:32N 38°42' W 009°10'1 0.6
2015-May-16 15:33N 38°42' W 009°10'0 0.0
2015-May-16 14:30N 38°42' W 009°10'0 0.0
2015-May-16 13:29N 38°42' W 009°10'0 0.0
2015-May-16 12:20N 38°42' W 009°10'0 0.0
2015-May-16 11:29N 38°42' W 009°10'0 0.0
2015-May-16 10:23N 38°42' W 009°10'0 0.0
2015-May-16 09:29N 38°42' W 009°10'0 0.0
2015-May-16 08:33N 38°42' W 009°10'0 0.0
2015-May-16 07:33N 38°42' W 009°10'0 0.0
2015-May-16 06:33N 38°42' W 009°10'0 0.0
2015-May-16 05:32N 38°42' W 009°10'0 0.0
2015-May-16 04:31N 38°42' W 009°10'0 0.0
2015-May-16 03:31N 38°42' W 009°10'0 0.0
2015-May-16 02:33N 38°42' W 009°10'0 0.0
2015-May-16 01:32N 38°42' W 009°10'0 0.0
2015-May-16 00:31N 38°42' W 009°10'0 0.0
2015-May-15 23:27N 38°42' W 009°10'0 0.0
2015-May-15 22:24N 38°42' W 009°10'0 0.0
2015-May-15 21:33N 38°42' W 009°10'0 0.0
2015-May-15 20:33N 38°42' W 009°10'0 0.0
2015-May-15 19:32N 38°42' W 009°10'0 0.0
2015-May-15 18:28N 38°42' W 009°10'0 0.0
2015-May-15 17:31N 38°42' W 009°10'0 0.1
2015-May-15 16:33N 38°42' W 009°10'9 8.7
2015-May-15 15:33N 38°39' W 009°20'1413.8
2015-May-15 14:33N 38°25' W 009°23'1211.7
2015-May-15 13:33N 38°14' W 009°23'1211.9
2015-May-15 12:33N 38°02' W 009°23'1615.6
2015-May-15 11:33N 37°46' W 009°22'1515.7
2015-May-15 10:33N 37°31' W 009°21'1615.6
2015-May-15 09:30N 37°14' W 009°22'2015.1
2015-May-15 08:12N 36°55' W 009°18'3613.5
2015-May-15 05:31N 37°01' W 008°33'1111.0
2015-May-15 04:33N 36°59' W 008°20'1312.8
2015-May-15 03:33N 36°52' W 008°07'13612.3
2015-May-14 16:33N 35°59' W 005°32'1111.3
2015-May-14 15:33N 36°08' W 005°23'1 0.5
2015-May-14 12:32N 36°09' W 005°22'  
Track history (hours):
 
Tides and Currents Weather Stations Pressure Air Temp Water Temp Dewpoint Dewpoint Depression Visibility Wind Speed Wind Dir Waves Ship Positions

Seabourn Quest

Last reported at 2015-May-24 07:25 UTC. Time now 2015-May-24 08:53 UTC.
Position N 50°17' E 000°03'.

Length 197 m; draft 6.7 m.

Type: Passenger vessel. MMSI: 311038900.

Date/timePositionNaut miles runAvg speedWind from/ knotsBaromVisibWave heightAir tempDewpointWater temp
2015-May-24 07:25N 50°17' E 000°03'3 3.2
2015-May-24 06:32N 50°15' E 000°01'4 4.1
2015-May-24 05:33N 50°11' W 000°01'5 4.2
2015-May-24 04:20N 50°06' W 000°02'3 4.4
2015-May-24 03:32N 50°03' W 000°03'19 4.8
2015-May-23 23:33N 49°44' W 000°09'5 4.7
2015-May-23 22:33N 49°39' W 000°10'6 5.7
2015-May-23 21:33N 49°33' W 000°12'4 4.4
2015-May-23 20:33N 49°30' W 000°08'4 4.5
2015-May-23 19:33N 49°28' W 000°01'1111.1
2015-May-23 18:33N 49°26' E 000°15'1111.5
2015-May-23 17:33N 49°28' E 000°33'9 8.4
2015-May-23 16:27N 49°31' E 000°46'7 0.2
2015-May-22 03:23N 49°28' E 000°56'5 4.8
2015-May-22 02:17N 49°26' E 000°48'6 5.2
2015-May-22 01:06N 49°29' E 000°40'5 9.0
2015-May-22 00:33N 49°28' E 000°33'1111.0
2015-May-21 23:33N 49°26' E 000°16'1212.2
2015-May-21 22:33N 49°29' W 000°02'1212.5
2015-May-21 21:33N 49°33' W 000°20'1313.1
2015-May-21 20:33N 49°38' W 000°39'39 9.3
2015-May-21 16:21N 49°40' W 001°39'  
2015-May-16 20:25N 39°05' W 009°44'1416.5
2015-May-16 19:33N 38°51' W 009°43'1212.2
2015-May-16 18:33N 38°39' W 009°41'1312.6
2015-May-16 17:33N 38°36' W 009°26'1413.4
2015-May-16 16:32N 38°42' W 009°10'1 0.6
2015-May-16 15:33N 38°42' W 009°10'0 0.0
2015-May-16 14:30N 38°42' W 009°10'0 0.0
2015-May-16 13:29N 38°42' W 009°10'0 0.0
2015-May-16 12:20N 38°42' W 009°10'0 0.0
2015-May-16 11:29N 38°42' W 009°10'0 0.0
2015-May-16 10:23N 38°42' W 009°10'0 0.0
2015-May-16 09:29N 38°42' W 009°10'0 0.0
2015-May-16 08:33N 38°42' W 009°10'0 0.0
2015-May-16 07:33N 38°42' W 009°10'0 0.0
2015-May-16 06:33N 38°42' W 009°10'0 0.0
2015-May-16 05:32N 38°42' W 009°10'0 0.0
2015-May-16 04:31N 38°42' W 009°10'0 0.0
2015-May-16 03:31N 38°42' W 009°10'0 0.0
2015-May-16 02:33N 38°42' W 009°10'0 0.0
2015-May-16 01:32N 38°42' W 009°10'0 0.0
2015-May-16 00:31N 38°42' W 009°10'0 0.0
2015-May-15 23:27N 38°42' W 009°10'0 0.0
2015-May-15 22:24N 38°42' W 009°10'0 0.0
2015-May-15 21:33N 38°42' W 009°10'0 0.0
2015-May-15 20:33N 38°42' W 009°10'0 0.0
2015-May-15 19:32N 38°42' W 009°10'0 0.0
2015-May-15 18:28N 38°42' W 009°10'0 0.0
2015-May-15 17:31N 38°42' W 009°10'0 0.1
2015-May-15 16:33N 38°42' W 009°10'9 8.7
2015-May-15 15:33N 38°39' W 009°20'1413.8
2015-May-15 14:33N 38°25' W 009°23'1211.7
2015-May-15 13:33N 38°14' W 009°23'1211.9
2015-May-15 12:33N 38°02' W 009°23'1615.6
2015-May-15 11:33N 37°46' W 009°22'1515.7
2015-May-15 10:33N 37°31' W 009°21'1615.6
2015-May-15 09:30N 37°14' W 009°22'2015.1
2015-May-15 08:12N 36°55' W 009°18'3613.5
2015-May-15 05:31N 37°01' W 008°33'1111.0
2015-May-15 04:33N 36°59' W 008°20'1312.8
2015-May-15 03:33N 36°52' W 008°07'13612.3
2015-May-14 16:33N 35°59' W 005°32'1111.3
2015-May-14 15:33N 36°08' W 005°23'1 0.5
2015-May-14 12:32N 36°09' W 005°22'  

Dump ship's entire track history